Time,TemperatureF,DewpointF,PressureIn,WindDirection,WindDirectionDegrees,WindSpeedMPH,WindSpeedGustMPH,Humidity,HourlyPrecipIn,Conditions,Clouds,dailyrainin,SoftwareType,DateUTC
2013-08-19 00:07:00,57.4,51.0,29.98,North,350,0.0,0.0,79,0.00,,,0.00,weatherlink.com 1.10,2013-08-19 07:07:00,
2013-08-19 00:23:00,56.9,50.0,29.98,North,350,0.0,0.0,79,0.00,,,0.00,weatherlink.com 1.10,2013-08-19 07:23:00,
2013-08-19 00:38:00,56.4,50.0,29.98,North,350,0.0,0.0,80,0.00,,,0.00,weatherlink.com 1.10,2013-08-19 07:38:00,
2013-08-19 00:53:00,55.9,50.0,29.98,North,350,0.0,0.0,81,0.00,,,0.00,weatherlink.com 1.10,2013-08-19 07:53:00,
2013-08-19 01:08:00,55.3,50.0,29.98,North,350,0.0,0.0,81,0.00,,,0.00,weatherlink.com 1.10,2013-08-19 08:08:00,
2013-08-19 01:23:00,54.8,49.0,29.98,NNE,15,0.0,0.0,82,0.00,,,0.00,weatherlink.com 1.10,2013-08-19 08:23:00,
2013-08-19 01:38:00,54.4,49.0,29.98,NNE,15,0.0,0.0,83,0.00,,,0.00,weatherlink.com 1.10,2013-08-19 08:38:00,
2013-08-19 01:53:00,54.0,49.0,29.98,NNE,15,0.0,0.0,83,0.00,,,0.00,weatherlink.com 1.10,2013-08-19 08:53:00,
2013-08-19 02:08:00,53.7,49.0,29.97,NNE,15,0.0,0.0,84,0.00,,,0.00,weatherlink.com 1.10,2013-08-19 09:08:00,
2013-08-19 02:23:00,53.2,49.0,29.97,NNE,15,0.0,0.0,85,0.00,,,0.00,weatherlink.com 1.10,2013-08-19 09:23:00,
2013-08-19 02:38:00,52.8,48.0,29.97,NNE,15,0.0,0.0,85,0.00,,,0.00,weatherlink.com 1.10,2013-08-19 09:38:00,
2013-08-19 02:53:00,52.5,49.0,29.97,NNE,15,0.0,0.0,86,0.00,,,0.00,weatherlink.com 1.10,2013-08-19 09:53:00,
2013-08-19 03:08:00,52.2,48.0,29.98,NNE,15,0.0,0.0,86,0.00,,,0.00,weatherlink.com 1.10,2013-08-19 10:08:00,
2013-08-19 03:23:00,51.8,48.0,29.97,NNE,15,0.0,0.0,87,0.00,,,0.00,weatherlink.com 1.10,2013-08-19 10:23:00,
2013-08-19 03:38:00,51.2,48.0,29.97,NNE,15,0.0,0.0,88,0.00,,,0.00,weatherlink.com 1.10,2013-08-19 10:38:00,
2013-08-19 03:53:00,50.8,47.0,29.97,North,9,0.0,0.0,88,0.00,,,0.00,weatherlink.com 1.10,2013-08-19 10:53:00,
2013-08-19 04:08:00,50.5,47.0,29.97,North,9,0.0,0.0,89,0.00,,,0.00,weatherlink.com 1.10,2013-08-19 11:08:00,
2013-08-19 04:23:00,50.4,47.0,29.97,North,9,0.0,0.0,89,0.00,,,0.00,weatherlink.com 1.10,2013-08-19 11:23:00,
2013-08-19 04:38:00,50.3,48.0,29.97,WNW,301,0.0,0.0,90,0.00,,,0.00,weatherlink.com 1.10,2013-08-19 11:38:00,
2013-08-19 04:53:00,50.4,48.0,29.97,West,265,0.0,0.0,90,0.00,,,0.00,weatherlink.com 1.10,2013-08-19 11:53:00,
2013-08-19 05:08:00,50.5,48.0,29.97,West,265,0.0,0.0,90,0.00,,,0.00,weatherlink.com 1.10,2013-08-19 12:08:00,
2013-08-19 05:23:00,50.5,48.0,29.97,West,265,0.0,0.0,90,0.00,,,0.00,weatherlink.com 1.10,2013-08-19 12:23:00,
2013-08-19 05:38:00,50.5,48.0,29.97,West,265,0.0,0.0,90,0.00,,,0.00,weatherlink.com 1.10,2013-08-19 12:38:00,
2013-08-19 05:53:00,50.5,48.0,29.98,SW,227,0.0,0.0,90,0.00,,,0.00,weatherlink.com 1.10,2013-08-19 12:53:00,
2013-08-19 06:08:00,50.5,48.0,29.98,West,275,0.0,0.0,90,0.00,,,0.00,weatherlink.com 1.10,2013-08-19 13:08:00,
2013-08-19 06:23:00,50.5,48.0,29.98,North,360,0.0,0.0,90,0.00,,,0.00,weatherlink.com 1.10,2013-08-19 13:23:00,
2013-08-19 06:38:00,50.4,48.0,29.98,North,360,0.0,0.0,90,0.00,,,0.00,weatherlink.com 1.10,2013-08-19 13:38:00,
2013-08-19 06:53:00,50.4,48.0,29.98,North,360,0.0,0.0,90,0.00,,,0.00,weatherlink.com 1.10,2013-08-19 13:53:00,
2013-08-19 07:08:00,50.5,48.0,29.99,North,355,0.0,0.0,91,0.00,,,0.00,weatherlink.com 1.10,2013-08-19 14:08:00,
2013-08-19 07:23:00,50.7,48.0,29.99,North,355,0.0,0.0,91,0.00,,,0.00,weatherlink.com 1.10,2013-08-19 14:23:00,
2013-08-19 07:38:00,51.2,49.0,29.99,North,355,0.0,0.0,92,0.00,,,0.00,weatherlink.com 1.10,2013-08-19 14:38:00,
2013-08-19 07:53:00,53.0,51.0,29.98,North,355,0.0,0.0,91,0.00,,,0.00,weatherlink.com 1.10,2013-08-19 14:53:00,
2013-08-19 08:08:00,55.3,52.0,29.98,NNE,12,0.0,0.0,87,0.00,,,0.00,weatherlink.com 1.10,2013-08-19 15:08:00,
2013-08-19 08:23:00,57.1,53.0,29.98,NNW,332,0.0,3.0,85,0.00,,,0.00,weatherlink.com 1.10,2013-08-19 15:23:00,
2013-08-19 08:38:00,58.6,53.0,29.98,North,355,0.0,1.0,81,0.00,,,0.00,weatherlink.com 1.10,2013-08-19 15:38:00,
2013-08-19 08:53:00,60.0,54.0,29.98,NNW,344,0.0,2.0,80,0.00,,,0.00,weatherlink.com 1.10,2013-08-19 15:53:00,
2013-08-19 09:08:00,61.5,56.0,29.98,NNW,346,0.0,1.0,81,0.00,,,0.00,weatherlink.com 1.10,2013-08-19 16:08:00,
2013-08-19 09:23:00,62.8,55.0,29.98,NNW,346,0.0,0.0,76,0.00,,,0.00,weatherlink.com 1.10,2013-08-19 16:23:00,
2013-08-19 09:38:00,64.0,56.0,29.98,East,101,2.0,2.0,75,0.00,,,0.00,weatherlink.com 1.10,2013-08-19 16:38:00,
2013-08-19 09:54:00,65.3,53.0,29.98,East,94,0.0,3.0,65,0.00,,,0.00,weatherlink.com 1.10,2013-08-19 16:54:00,
2013-08-19 10:09:00,66.9,52.0,29.98,North,355,0.0,6.0,59,0.00,,,0.00,weatherlink.com 1.10,2013-08-19 17:09:00,
2013-08-19 10:24:00,69.0,54.0,29.98,East,99,0.0,2.0,60,0.00,,,0.00,weatherlink.com 1.10,2013-08-19 17:24:00,
2013-08-19 10:39:00,71.0,55.0,29.98,ESE,120,0.0,2.0,58,0.00,,,0.00,weatherlink.com 1.10,2013-08-19 17:39:00,
2013-08-19 10:54:00,71.6,52.0,29.98,WSW,255,1.0,5.0,51,0.00,,,0.00,weatherlink.com 1.10,2013-08-19 17:54:00,
2013-08-19 11:09:00,71.9,56.0,29.98,North,11,0.0,3.0,57,0.00,,,0.00,weatherlink.com 1.10,2013-08-19 18:09:00,
2013-08-19 11:24:00,72.2,54.0,29.98,SW,218,0.0,6.0,54,0.00,,,0.00,weatherlink.com 1.10,2013-08-19 18:24:00,
2013-08-19 11:39:00,74.1,53.0,29.98,SSW,202,1.0,9.0,48,0.00,,,0.00,weatherlink.com 1.10,2013-08-19 18:39:00,
2013-08-19 11:54:00,75.2,54.0,29.98,North,5,2.0,4.0,47,0.00,,,0.00,weatherlink.com 1.10,2013-08-19 18:54:00,
2013-08-19 12:09:00,75.6,55.0,29.98,ENE,57,0.0,4.0,49,0.00,,,0.00,weatherlink.com 1.10,2013-08-19 19:09:00,
2013-08-19 12:24:00,76.2,54.0,29.98,ENE,66,0.0,5.0,46,0.00,,,0.00,weatherlink.com 1.10,2013-08-19 19:24:00,
2013-08-19 12:39:00,75.4,53.0,29.98,South,180,1.0,6.0,46,0.00,,,0.00,weatherlink.com 1.10,2013-08-19 19:39:00,
2013-08-19 12:54:00,75.7,53.0,29.98,NNW,338,1.0,5.0,46,0.00,,,0.00,weatherlink.com 1.10,2013-08-19 19:54:00,
2013-08-19 13:09:00,76.5,54.0,29.98,NE,37,0.0,4.0,45,0.00,,,0.00,weatherlink.com 1.10,2013-08-19 20:09:00,
2013-08-19 13:24:00,76.9,53.0,29.98,West,269,0.0,4.0,43,0.00,,,0.00,weatherlink.com 1.10,2013-08-19 20:24:00,
2013-08-19 13:39:00,76.6,54.0,29.98,North,5,0.0,4.0,45,0.00,,,0.00,weatherlink.com 1.10,2013-08-19 20:39:00,
2013-08-19 13:54:00,76.4,53.0,29.98,WNW,299,2.0,4.0,44,0.00,,,0.00,weatherlink.com 1.10,2013-08-19 20:54:00,
2013-08-19 14:09:00,75.7,53.0,29.97,NNE,32,2.0,9.0,45,0.00,,,0.00,weatherlink.com 1.10,2013-08-19 21:09:00,
2013-08-19 14:24:00,74.8,51.0,29.97,NE,42,1.0,6.0,44,0.00,,,0.00,weatherlink.com 1.10,2013-08-19 21:24:00,
2013-08-19 14:39:00,74.7,49.0,29.96,West,276,0.0,7.0,41,0.00,,,0.00,weatherlink.com 1.10,2013-08-19 21:39:00,
2013-08-19 14:54:00,74.7,52.0,29.96,ENE,66,1.0,3.0,45,0.00,,,0.00,weatherlink.com 1.10,2013-08-19 21:54:00,
2013-08-19 15:09:00,74.8,50.0,29.96,ENE,63,1.0,5.0,42,0.00,,,0.00,weatherlink.com 1.10,2013-08-19 22:09:00,
2013-08-19 15:24:00,75.0,50.0,29.96,East,94,0.0,4.0,42,0.00,,,0.00,weatherlink.com 1.10,2013-08-19 22:24:00,
2013-08-19 15:39:00,74.9,51.0,29.96,WNW,294,1.0,3.0,44,0.00,,,0.00,weatherlink.com 1.10,2013-08-19 22:39:00,
2013-08-19 15:54:00,74.7,52.0,29.96,North,360,0.0,4.0,45,0.00,,,0.00,weatherlink.com 1.10,2013-08-19 22:54:00,
2013-08-19 16:09:00,74.6,51.0,29.96,SW,225,1.0,5.0,44,0.00,,,0.00,weatherlink.com 1.10,2013-08-19 23:09:00,
2013-08-19 16:24:00,74.5,51.0,29.96,North,5,2.0,4.0,44,0.00,,,0.00,weatherlink.com 1.10,2013-08-19 23:24:00,
2013-08-19 16:39:00,73.9,53.0,29.96,NNW,329,0.0,4.0,48,0.00,,,0.00,weatherlink.com 1.10,2013-08-19 23:39:00,
2013-08-19 16:54:00,73.2,51.0,29.95,SE,138,0.0,5.0,45,0.00,,,0.00,weatherlink.com 1.10,2013-08-19 23:54:00,
2013-08-19 17:09:00,73.1,51.0,29.95,WSW,251,0.0,3.0,46,0.00,,,0.00,weatherlink.com 1.10,2013-08-20 00:09:00,
2013-08-19 17:24:00,72.9,51.0,29.95,ENE,62,0.0,8.0,47,0.00,,,0.00,weatherlink.com 1.10,2013-08-20 00:24:00,
2013-08-19 17:39:00,72.6,51.0,29.95,NNE,13,3.0,4.0,46,0.00,,,0.00,weatherlink.com 1.10,2013-08-20 00:39:00,
2013-08-19 17:54:00,71.9,52.0,29.95,ENE,67,0.0,5.0,49,0.00,,,0.00,weatherlink.com 1.10,2013-08-20 00:54:00,
2013-08-19 18:09:00,71.3,50.0,29.95,NE,43,0.0,6.0,47,0.00,,,0.00,weatherlink.com 1.10,2013-08-20 01:09:00,
2013-08-19 18:24:00,70.8,50.0,29.95,SW,232,0.0,5.0,48,0.00,,,0.00,weatherlink.com 1.10,2013-08-20 01:24:00,
2013-08-19 18:39:00,70.4,50.0,29.95,ENE,57,0.0,3.0,49,0.00,,,0.00,weatherlink.com 1.10,2013-08-20 01:39:00,
2013-08-19 18:54:00,69.6,52.0,29.94,North,360,0.0,2.0,53,0.00,,,0.00,weatherlink.com 1.10,2013-08-20 01:54:00,
2013-08-19 19:09:00,68.8,51.0,29.95,NE,36,0.0,0.0,54,0.00,,,0.00,weatherlink.com 1.10,2013-08-20 02:09:00,
2013-08-19 19:24:00,68.0,51.0,29.95,NE,44,0.0,2.0,54,0.00,,,0.00,weatherlink.com 1.10,2013-08-20 02:24:00,
2013-08-19 19:39:00,67.5,52.0,29.95,ENE,58,0.0,1.0,57,0.00,,,0.00,weatherlink.com 1.10,2013-08-20 02:39:00,
2013-08-19 19:54:00,66.5,52.0,29.96,WSW,254,0.0,0.0,59,0.00,,,0.00,weatherlink.com 1.10,2013-08-20 02:54:00,
2013-08-19 20:09:00,65.0,52.0,29.96,WSW,254,0.0,0.0,63,0.00,,,0.00,weatherlink.com 1.10,2013-08-20 03:09:00,
2013-08-19 20:24:00,63.7,52.0,29.96,WSW,254,0.0,0.0,66,0.00,,,0.00,weatherlink.com 1.10,2013-08-20 03:24:00,
2013-08-19 20:39:00,62.3,52.0,29.97,WSW,254,0.0,0.0,68,0.00,,,0.00,weatherlink.com 1.10,2013-08-20 03:39:00,
2013-08-19 20:54:00,61.1,51.0,29.97,SW,219,0.0,0.0,70,0.00,,,0.00,weatherlink.com 1.10,2013-08-20 03:54:00,
2013-08-19 21:09:00,60.2,52.0,29.98,SW,219,0.0,0.0,73,0.00,,,0.00,weatherlink.com 1.10,2013-08-20 04:09:00,
2013-08-19 21:24:00,59.3,51.0,29.99,SW,219,0.0,0.0,74,0.00,,,0.00,weatherlink.com 1.10,2013-08-20 04:24:00,
2013-08-19 21:39:00,58.5,51.0,29.99,SW,219,0.0,0.0,75,0.00,,,0.00,weatherlink.com 1.10,2013-08-20 04:39:00,
2013-08-19 21:54:00,57.7,50.0,29.99,SW,223,0.0,0.0,76,0.00,,,0.00,weatherlink.com 1.10,2013-08-20 04:54:00,
2013-08-19 22:09:00,57.0,50.0,29.99,SW,223,0.0,0.0,77,0.00,,,0.00,weatherlink.com 1.10,2013-08-20 05:09:00,
2013-08-19 22:25:00,56.4,50.0,29.99,SW,223,0.0,0.0,78,0.00,,,0.00,weatherlink.com 1.10,2013-08-20 05:25:00,
2013-08-19 22:40:00,55.7,49.0,30.00,SW,223,0.0,0.0,79,0.00,,,0.00,weatherlink.com 1.10,2013-08-20 05:40:00,
2013-08-19 22:55:00,55.0,49.0,30.00,SW,223,0.0,0.0,81,0.00,,,0.00,weatherlink.com 1.10,2013-08-20 05:55:00,
2013-08-19 23:10:00,54.4,49.0,30.00,SW,223,0.0,0.0,82,0.00,,,0.00,weatherlink.com 1.10,2013-08-20 06:10:00,
2013-08-19 23:25:00,53.8,49.0,30.00,SW,223,0.0,0.0,83,0.00,,,0.00,weatherlink.com 1.10,2013-08-20 06:25:00,
2013-08-19 23:40:00,53.3,49.0,30.00,SW,223,0.0,0.0,84,0.00,,,0.00,weatherlink.com 1.10,2013-08-20 06:40:00,
2013-08-19 23:55:00,52.8,48.0,30.00,SW,223,0.0,0.0,84,0.00,,,0.00,weatherlink.com 1.10,2013-08-20 06:55:00,